createdAt,value
2019-06-08T00:01:12.164Z,17.50
2019-06-08T00:06:18.824Z,19.33
2019-06-08T00:11:23.907Z,32.17
2019-06-08T00:16:28.854Z,15.67
2019-06-08T00:21:33.874Z,15.40
2019-06-08T00:26:38.926Z,24.33
2019-06-08T00:31:44.034Z,15.37
2019-06-08T00:36:48.910Z,16.53
2019-06-08T00:41:53.933Z,20.67
2019-06-08T00:46:58.887Z,20.53
2019-06-08T00:52:04.104Z,17.30
2019-06-08T00:57:09.193Z,17.97
2019-06-08T01:02:14.211Z,18.07
2019-06-08T01:07:19.932Z,23.27
2019-06-08T01:12:24.936Z,23.20
2019-06-08T01:17:29.971Z,25.90
2019-06-08T01:22:34.926Z,13.00
2019-06-08T01:27:39.909Z,22.03
2019-06-08T01:32:45.036Z,17.93
2019-06-08T01:37:50.082Z,19.23
2019-06-08T01:42:55.098Z,19.73
2019-06-08T01:48:15.991Z,14.83
2019-06-08T01:53:09.060Z,18.73
2019-06-08T01:58:14.106Z,15.60
2019-06-08T02:03:19.258Z,17.20
2019-06-08T02:08:24.447Z,15.47
2019-06-08T02:13:29.450Z,19.00
2019-06-08T02:18:44.110Z,20.10
2019-06-08T02:23:41.024Z,17.57
2019-06-08T02:28:46.107Z,19.43
2019-06-08T02:33:51.213Z,16.47
2019-06-08T02:38:56.320Z,17.50
2019-06-08T02:44:01.272Z,21.47
2019-06-08T02:49:06.606Z,17.47
2019-06-08T02:54:12.147Z,22.63
2019-06-08T02:59:20.311Z,23.37
2019-06-08T03:04:27.302Z,23.07
2019-06-08T03:09:34.737Z,18.23
2019-06-08T03:14:42.117Z,16.73
2019-06-08T03:19:47.268Z,29.07
2019-06-08T03:24:52.243Z,24.00
2019-06-08T03:29:57.231Z,23.67
2019-06-08T03:35:02.211Z,22.40
2019-06-08T03:40:07.330Z,32.10
2019-06-08T03:45:13.319Z,26.03
2019-06-08T03:50:18.281Z,28.10
2019-06-08T03:55:23.401Z,34.57
2019-06-08T04:00:28.511Z,31.40
2019-06-08T04:05:33.601Z,37.63
2019-06-08T04:10:39.925Z,44.33
2019-06-08T04:15:46.974Z,44.80
2019-06-08T04:20:52.123Z,53.73
2019-06-08T04:25:57.146Z,60.83
2019-06-08T04:31:02.203Z,55.47
2019-06-08T04:36:07.265Z,75.13
2019-06-08T04:41:12.271Z,78.47
2019-06-08T04:46:17.271Z,76.20
2019-06-08T04:51:22.251Z,74.20
2019-06-08T04:56:27.274Z,83.60
2019-06-08T05:01:32.245Z,77.10
2019-06-08T05:06:38.892Z,77.60
2019-06-08T05:11:45.237Z,88.83
2019-06-08T05:16:50.430Z,97.10
2019-06-08T05:21:55.382Z,98.87
2019-06-08T05:27:00.430Z,100.63
2019-06-08T05:32:05.566Z,108.63
2019-06-08T05:37:10.521Z,71.93
2019-06-08T05:42:15.505Z,56.37
2019-06-08T05:47:20.590Z,50.37
2019-06-08T05:52:25.569Z,43.97
2019-06-08T05:57:30.489Z,47.13
2019-06-08T06:02:35.578Z,43.10
2019-06-08T06:07:40.615Z,43.83
2019-06-08T06:12:46.863Z,51.37
2019-06-08T06:17:52.035Z,40.37
2019-06-08T06:22:58.574Z,41.77
2019-06-08T06:28:06.217Z,42.40
2019-06-08T06:33:10.621Z,38.57
2019-06-08T06:38:15.654Z,36.73
2019-06-08T06:43:20.842Z,41.20
2019-06-08T06:48:25.878Z,40.03
2019-06-08T06:53:30.770Z,41.53
2019-06-08T06:58:35.718Z,45.37
2019-06-08T07:03:40.762Z,39.30
2019-06-08T07:08:46.216Z,44.27
2019-06-08T07:13:51.190Z,45.77
2019-06-08T07:18:56.159Z,45.00
2019-06-08T07:24:01.126Z,44.00
2019-06-08T07:29:06.152Z,38.93
2019-06-08T07:34:11.135Z,42.90
2019-06-08T07:39:16.154Z,37.60
2019-06-08T07:44:21.153Z,36.07
2019-06-08T07:49:26.123Z,42.10
2019-06-08T07:54:31.039Z,34.17
2019-06-08T07:59:36.015Z,38.93
2019-06-08T08:04:41.038Z,34.27
2019-06-08T08:09:46.157Z,35.17
2019-06-08T08:14:51.349Z,36.23
2019-06-08T08:19:57.307Z,35.67
2019-06-08T08:25:05.003Z,48.20
2019-06-08T08:30:11.050Z,33.60
2019-06-08T08:35:18.423Z,34.53
2019-06-08T08:40:23.723Z,36.33
2019-06-08T08:45:29.134Z,34.80
2019-06-08T08:50:34.158Z,37.03
2019-06-08T08:55:39.250Z,33.63
2019-06-08T09:00:44.196Z,31.87
2019-06-08T09:05:49.215Z,30.60
2019-06-08T09:10:55.380Z,26.33
2019-06-08T09:16:03.993Z,25.93
2019-06-08T09:21:08.384Z,25.07
2019-06-08T09:26:13.703Z,28.40
2019-06-08T09:31:18.876Z,16.07
2019-06-08T09:36:23.983Z,16.80
2019-06-08T09:41:31.236Z,9.40
2019-06-08T09:46:38.362Z,10.40
2019-06-08T09:51:42.269Z,5.57
2019-06-08T09:56:47.854Z,13.60
2019-06-08T10:01:54.021Z,6.63
2019-06-08T10:07:00.685Z,7.57
2019-06-08T10:12:09.690Z,8.93
2019-06-08T10:17:13.971Z,6.07
2019-06-08T10:22:18.996Z,4.97
2019-06-08T10:27:24.014Z,4.47
2019-06-08T10:32:28.973Z,2.60
2019-06-08T10:37:33.991Z,6.57
2019-06-08T10:42:40.147Z,5.70
2019-06-08T10:47:47.748Z,3.63
2019-06-08T10:52:52.094Z,1.97
2019-06-08T10:57:58.003Z,7.07
2019-06-08T11:03:05.304Z,9.70
2019-06-08T11:08:14.107Z,6.43
2019-06-08T11:13:18.688Z,2.47
2019-06-08T11:18:23.203Z,7.85
2019-06-08T11:23:28.808Z,8.40
2019-06-08T11:28:33.938Z,2.23
2019-06-08T11:33:39.135Z,2.00
2019-06-08T11:38:47.667Z,2.35
2019-06-08T11:43:51.731Z,5.12
2019-06-08T11:48:57.792Z,7.08
2019-06-08T11:54:05.042Z,7.10
2019-06-08T11:59:14.312Z,6.80
2019-06-08T12:04:18.581Z,5.58
2019-06-08T12:09:24.593Z,2.67
2019-06-08T12:14:29.673Z,3.93
2019-06-08T12:19:37.541Z,2.50
2019-06-08T12:24:42.541Z,3.00
2019-06-08T12:29:52.382Z,7.33
2019-06-08T12:34:59.824Z,2.27
2019-06-08T12:40:07.596Z,2.67
2019-06-08T12:45:13.373Z,1.77
2019-06-08T12:50:19.972Z,2.58
2019-06-08T12:55:25.572Z,2.05
2019-06-08T13:00:30.834Z,10.70
2019-06-08T13:05:37.922Z,3.42
2019-06-08T13:10:44.175Z,4.28
2019-06-08T13:15:49.408Z,5.00
2019-06-08T13:20:54.452Z,1.50
2019-06-08T13:25:59.429Z,2.30
2019-06-08T13:31:04.454Z,3.00
2019-06-08T13:36:10.346Z,1.20
2019-06-08T13:41:15.402Z,5.00
2019-06-08T13:46:22.363Z,2.30
2019-06-08T13:51:28.189Z,1.17
2019-06-08T13:56:33.346Z,2.93
2019-06-08T14:01:38.431Z,3.85
2019-06-08T14:06:43.457Z,2.20
2019-06-08T14:11:48.351Z,6.70
2019-06-08T14:16:54.242Z,9.10
2019-06-08T14:21:59.190Z,6.00
2019-06-08T14:27:04.241Z,3.90
2019-06-08T14:32:11.593Z,6.28
2019-06-08T14:37:17.894Z,24.80
2019-06-08T14:42:29.705Z,2.05
2019-06-08T14:47:31.761Z,6.08
2019-06-08T14:52:38.123Z,4.37
2019-06-08T14:57:43.471Z,3.17
2019-06-08T15:02:49.876Z,1.47
2019-06-08T15:07:55.041Z,8.68
2019-06-08T15:13:00.062Z,3.25
2019-06-08T15:18:05.173Z,3.62
2019-06-08T15:23:11.950Z,4.10
2019-06-08T15:28:18.957Z,0.82
2019-06-08T15:33:24.892Z,8.23
2019-06-08T15:38:32.365Z,3.17
2019-06-08T15:43:39.979Z,6.65
2019-06-08T15:48:43.649Z,1.52
2019-06-08T15:53:49.626Z,1.60
2019-06-08T15:58:54.497Z,3.00
2019-06-08T16:03:59.455Z,5.12
2019-06-08T16:09:07.206Z,6.33
2019-06-08T16:14:12.318Z,1.42
2019-06-08T16:19:17.330Z,5.47
2019-06-08T16:24:22.379Z,7.42
2019-06-08T16:29:27.318Z,2.12
2019-06-08T16:34:33.516Z,8.63
2019-06-08T16:39:39.008Z,1.45
2019-06-08T16:44:44.223Z,3.55
2019-06-08T16:49:49.424Z,2.67
2019-06-08T16:54:54.523Z,1.52
2019-06-08T16:59:59.535Z,2.67
2019-06-08T17:05:07.788Z,2.12
2019-06-08T17:10:13.719Z,4.60
2019-06-08T17:15:19.008Z,5.28
2019-06-08T17:20:24.339Z,8.95
2019-06-08T17:25:30.361Z,7.20
2019-06-08T17:30:36.401Z,4.30
2019-06-08T17:35:42.555Z,1.55
2019-06-08T17:40:47.567Z,8.43
2019-06-08T17:45:52.528Z,7.25
2019-06-08T17:50:58.716Z,6.67
2019-06-08T17:56:03.829Z,4.95
2019-06-08T18:01:08.951Z,4.53
2019-06-08T18:06:14.030Z,6.95
2019-06-08T18:11:19.001Z,12.90
2019-06-08T18:16:24.131Z,10.95
2019-06-08T18:21:29.138Z,2.42
2019-06-08T18:26:34.397Z,8.63
2019-06-08T18:31:42.489Z,6.00
2019-06-08T18:36:47.962Z,8.48
2019-06-08T18:41:53.062Z,4.75
2019-06-08T18:46:58.206Z,9.33
2019-06-08T18:52:03.250Z,8.93
2019-06-08T18:57:08.932Z,5.67
2019-06-08T19:02:14.874Z,13.62
2019-06-08T19:07:19.962Z,16.85
2019-06-08T19:12:24.978Z,14.65
2019-06-08T19:17:30.566Z,4.72
2019-06-08T19:22:35.222Z,8.48
2019-06-08T19:27:45.113Z,4.42
2019-06-08T19:32:50.539Z,7.30
2019-06-08T19:37:54.058Z,4.83
2019-06-08T19:43:01.381Z,6.23
2019-06-08T19:48:08.284Z,8.03
2019-06-08T19:53:13.357Z,8.23
2019-06-08T19:58:18.363Z,5.03
2019-06-08T20:03:23.403Z,6.17
2019-06-08T20:08:29.164Z,4.03
2019-06-08T20:13:34.753Z,6.97
2019-06-08T20:18:41.522Z,4.57
2019-06-08T20:23:48.233Z,3.63
2019-06-08T20:29:11.249Z,3.83
2019-06-08T20:33:59.758Z,4.33
2019-06-08T20:39:07.343Z,7.77
2019-06-08T20:44:13.674Z,10.17
2019-06-08T20:49:18.665Z,11.20
2019-06-08T20:54:23.692Z,11.80
2019-06-08T20:59:33.194Z,11.27
2019-06-08T21:04:35.357Z,8.53
2019-06-08T21:09:40.260Z,11.60
2019-06-08T21:14:46.450Z,19.93
2019-06-08T21:19:53.038Z,30.60
2019-06-08T21:25:00.235Z,23.53
2019-06-08T21:30:20.230Z,15.33
2019-06-08T21:35:18.201Z,13.33
2019-06-08T21:40:24.503Z,18.30
2019-06-08T21:45:29.555Z,9.83
2019-06-08T21:50:36.955Z,17.63
2019-06-08T21:55:41.174Z,7.03
2019-06-08T22:00:49.512Z,8.80
2019-06-08T22:05:56.502Z,10.30
2019-06-08T22:11:02.663Z,4.57
2019-06-08T22:16:08.369Z,12.23
2019-06-08T22:21:13.470Z,5.17
2019-06-08T22:26:18.442Z,21.33
2019-06-08T22:31:23.391Z,11.70
2019-06-08T22:36:28.403Z,9.73
2019-06-08T22:41:33.386Z,6.30
2019-06-08T22:46:38.322Z,9.10
2019-06-08T22:51:43.265Z,5.63
2019-06-08T22:56:48.202Z,8.37
2019-06-08T23:01:53.343Z,8.53
2019-06-08T23:07:02.868Z,11.50
2019-06-08T23:12:09.174Z,7.17
2019-06-08T23:17:12.726Z,8.13
2019-06-08T23:22:17.751Z,6.37
2019-06-08T23:27:22.710Z,13.13
2019-06-08T23:32:27.799Z,12.67
2019-06-08T23:37:32.810Z,6.30
2019-06-08T23:42:38.564Z,6.37
2019-06-08T23:47:43.702Z,9.77
2019-06-08T23:52:49.641Z,10.70
2019-06-08T23:57:54.522Z,12.97
